KSCH/SCH METAR and TAF weather

Enter ICAO airport designator
Station Type Date Time Source
KSCH METAR 2019/06/18 14:46 UTC NOAA

KSCH 181446Z 00000KT 15SM -RA BKN015 BKN020 OVC070 18/13 A2997


Station Type Date Time Source
KSCH Decoded METAR 2019/06/18 14:46 UTC NOAA

Schenectady Airport, NY, United States (KSCH) 42-51N 073-56W
Jun 18, 2019 - 10:46 AM EDT / 2019.06.18 1446 UTC
Wind: Calm:0
Visibility: 15 mile(s):0
Sky conditions: overcast
Weather: light rain
Temperature: 64 F (18 C)
Dew Point: 55 F (13 C)
Relative Humidity: 72%
Pressure (altimeter): 29.97 in. Hg (1014 hPa)
ob: KSCH 181446Z 00000KT 15SM -RA BKN015 BKN020 OVC070 18/13 A2997
cycle: 15

Station Type Date Time Source
KSCH TAF UTC NOAA

Error!

Example: see airport list